Time;durP1;ratioP1;P1;durP2;ratioP2;P2;SDS_P1;SDS_P2;PMS_P1;PMS_P2;Temp;Humidity;BMP_temperature;BMP_pressure;BME280_temperature;BME280_humidity;BME280_pressure;Samples;Min_cycle;Max_cycle;Signal;HPM_P1;HPM_P2
2022/12/29 00:00:18;;;;;;;;;62.00;49.25;;;;;10.43;45.83;100093.06;5128934;27;8841;-75
2022/12/29 00:03:07;;;;;;;;;60.50;49.00;;;;;10.53;45.60;100081.84;5128149;27;8845;-76
2022/12/29 00:05:36;;;;;;;;;63.75;51.25;;;;;10.59;45.44;100081.03;5110018;27;8923;-76
2022/12/29 00:08:05;;;;;;;;;62.75;52.75;;;;;10.65;45.50;100087.16;5137371;27;8878;-79
2022/12/29 00:10:34;;;;;;;;;62.75;51.75;;;;;10.67;44.90;100085.44;5096230;27;8851;-79
2022/12/29 00:15:50;;;;;;;;;64.00;53.00;;;;;10.70;44.92;100087.22;5040196;28;8868;-77
2022/12/29 00:18:19;;;;;;;;;67.75;55.75;;;;;10.69;44.88;100085.44;5085140;28;8861;-77
2022/12/29 00:45:45;;;;;;;;;66.50;53.50;;;;;10.25;46.08;100092.00;5130533;27;8907;-77
2022/12/29 00:48:14;;;;;;;;;71.00;56.50;;;;;10.33;45.75;100098.19;5113660;27;8865;-76
2022/12/29 00:50:42;;;;;;;;;66.00;56.25;;;;;10.39;46.03;100093.88;5131329;27;8929;-76
2022/12/29 00:53:10;;;;;;;;;64.75;52.50;;;;;10.41;45.99;100095.63;5113565;27;8958;-77
2022/12/29 00:55:40;;;;;;;;;68.75;55.50;;;;;10.43;45.80;100096.53;5113495;27;8957;-77
2022/12/29 00:58:09;;;;;;;;;63.25;50.50;;;;;10.46;45.57;100093.97;5112853;27;8853;-75
2022/12/29 01:00:37;;;;;;;;;65.50;52.75;;;;;10.38;45.70;100089.53;5113552;27;8853;-75
2022/12/29 01:03:07;;;;;;;;;61.50;49.50;;;;;10.30;46.25;100095.56;5130277;27;8877;-76
2022/12/29 01:05:37;;;;;;;;;65.25;52.50;;;;;10.32;46.43;100091.25;5131464;27;8845;-77
2022/12/29 01:08:07;;;;;;;;;64.75;52.25;;;;;10.36;45.95;100086.03;5131394;27;8834;-77
2022/12/29 01:10:35;;;;;;;;;65.25;53.50;;;;;10.34;46.26;100092.13;5096455;27;8861;-73
2022/12/29 01:13:04;;;;;;;;;65.25;54.50;;;;;10.23;46.79;100093.72;5111803;27;8837;-75
2022/12/29 01:15:32;;;;;;;;;67.00;55.25;;;;;10.00;47.51;100093.50;5096199;27;9552;-79
2022/12/29 01:18:01;;;;;;;;;64.00;53.50;;;;;9.98;47.59;100090.00;5095610;27;8845;-77
2022/12/29 01:20:32;;;;;;;;;57.75;48.75;;;;;9.95;47.86;100093.44;5103694;27;8839;-75
2022/12/29 01:23:01;;;;;;;;;64.00;52.50;;;;;10.00;47.89;100090.88;5133200;27;9569;-76
2022/12/29 01:25:30;;;;;;;;;61.75;49.50;;;;;10.04;48.32;100083.97;5133194;27;8970;-78
2022/12/29 01:28:00;;;;;;;;;63.50;51.50;;;;;10.09;48.28;100091.00;5129259;27;8838;-78
2022/12/29 01:30:29;;;;;;;;;61.25;50.00;;;;;10.00;48.77;100090.00;5131285;27;8935;-76
2022/12/29 01:32:58;;;;;;;;;62.75;51.50;;;;;10.08;48.40;100086.63;5112890;27;8849;-76
2022/12/29 01:35:26;;;;;;;;;65.00;52.25;;;;;10.21;47.85;100087.63;5131626;27;8969;-78
2022/12/29 01:37:57;;;;;;;;;67.00;55.25;;;;;10.28;47.61;100088.53;5096172;27;8853;-75
2022/12/29 01:40:25;;;;;;;;;65.25;53.00;;;;;10.32;47.31;100083.41;5078296;27;8937;-77
2022/12/29 01:42:54;;;;;;;;;78.75;58.25;;;;;10.32;46.93;100085.13;5131090;27;8849;-78
2022/12/29 01:45:23;;;;;;;;;70.50;55.25;;;;;10.33;47.25;100085.16;5133426;27;8894;-79
2022/12/29 01:47:56;;;;;;;;;72.25;55.25;;;;;10.26;47.28;100083.31;5086488;28;8888;-77
2022/12/29 01:50:29;;;;;;;;;72.00;57.00;;;;;10.26;47.16;100072.00;5070425;28;9626;-77
2022/12/29 01:53:02;;;;;;;;;71.25;54.25;;;;;10.11;48.04;100075.34;5053802;28;8857;-76
2022/12/29 01:55:36;;;;;;;;;64.75;53.50;;;;;9.84;49.40;100078.53;5086610;28;8869;-77
2022/12/29 01:58:07;;;;;;;;;67.00;53.50;;;;;9.75;49.73;100072.38;5053742;28;8850;-78
2022/12/29 02:00:37;;;;;;;;;65.00;51.75;;;;;9.61;50.44;100070.47;5070109;28;8846;-77
2022/12/29 02:03:08;;;;;;;;;54.25;46.25;;;;;9.48;51.24;100066.84;5068788;28;8853;-76
2022/12/29 02:05:43;;;;;;;;;59.75;49.25;;;;;9.47;51.63;100063.38;5070119;28;8826;-76
2022/12/29 02:08:15;;;;;;;;;57.75;46.75;;;;;9.44;52.19;100062.47;5053411;28;8854;-77
2022/12/29 02:10:45;;;;;;;;;54.75;46.75;;;;;9.57;51.59;100052.19;5036732;28;9567;-79
2022/12/29 02:13:16;;;;;;;;;60.25;46.75;;;;;9.54;51.85;100069.50;5069734;28;8842;-79
2022/12/29 02:16:00;;;;;;;;;57.00;46.75;;;;;9.47;52.45;100065.97;5069927;28;8884;-76
2022/12/29 02:18:39;;;;;;;;;56.00;45.25;;;;;9.50;52.29;100062.53;5064862;28;8960;-76
2022/12/29 02:21:40;;;;;;;;;54.25;46.50;;;;;9.57;52.35;100064.34;5079323;28;9070;-77
2022/12/29 02:24:57;;;;;;;;;51.75;45.25;;;;;9.47;52.74;100057.28;5052859;28;8861;-77
2022/12/29 02:27:49;;;;;;;;;52.00;45.25;;;;;9.63;52.20;100059.22;5112671;27;8968;-78
2022/12/29 02:30:43;;;;;;;;;47.75;41.75;;;;;9.59;52.58;100054.81;5095928;27;8830;-78
2022/12/29 02:33:28;;;;;;;;;44.50;39.25;;;;;9.57;52.74;100056.53;5029528;28;8867;-77
2022/12/29 02:36:05;;;;;;;;;57.25;45.50;;;;;9.66;52.51;100053.16;5041254;28;8895;-75
2022/12/29 02:38:51;;;;;;;;;41.50;38.50;;;;;9.74;53.00;100051.53;5048888;28;8861;-78
2022/12/29 02:41:24;;;;;;;;;44.75;36.00;;;;;9.79;52.97;100044.63;5049612;28;8860;-76
2022/12/29 02:44:00;;;;;;;;;42.25;39.50;;;;;9.90;52.95;100047.34;5048969;28;8860;-79
2022/12/29 02:46:36;;;;;;;;;38.75;36.75;;;;;9.91;53.24;100042.16;5016439;28;8926;-77
2022/12/29 02:49:12;;;;;;;;;43.25;38.00;;;;;9.95;52.99;100043.94;5046913;28;8867;-76
2022/12/29 02:51:51;;;;;;;;;37.75;36.00;;;;;9.94;52.95;100047.41;5027304;28;9568;-75
2022/12/29 02:57:12;;;;;;;;;32.50;32.50;;;;;10.04;52.65;100044.91;5029290;28;8839;-74
2022/12/29 02:59:43;;;;;;;;;36.25;33.75;;;;;10.01;53.25;100047.47;5058531;28;8856;-76
2022/12/29 03:02:33;;;;;;;;;29.75;29.75;;;;;10.14;52.90;100046.72;5047109;28;8879;-77
2022/12/29 03:05:18;;;;;;;;;23.00;21.75;;;;;10.09;53.33;100048.41;5030967;28;8857;-79
2022/12/29 03:07:56;;;;;;;;;30.00;27.50;;;;;10.15;52.70;100051.06;5045340;28;8837;-76
2022/12/29 03:10:36;;;;;;;;;32.00;31.50;;;;;10.37;52.54;100054.75;5083300;27;8846;-76
2022/12/29 03:16:08;;;;;;;;;35.00;31.75;;;;;10.47;52.10;100040.06;5127450;27;8842;-76
2022/12/29 03:18:59;;;;;;;;;31.50;29.50;;;;;10.55;51.96;100038.41;5111368;27;8849;-76
2022/12/29 03:24:26;;;;;;;;;33.00;32.00;;;;;10.52;52.32;100035.78;5129594;27;9030;-76
2022/12/29 03:27:00;;;;;;;;;32.00;29.80;;;;;10.70;51.33;100033.31;5127737;27;8857;-77
2022/12/29 03:29:38;;;;;;;;;29.40;29.40;;;;;10.81;50.94;100029.88;5129942;27;8878;-76
2022/12/29 03:32:09;;;;;;;;;32.80;28.40;;;;;10.90;50.97;100038.63;5136669;27;8842;-75
2022/12/29 03:34:41;;;;;;;;;19.40;19.00;;;;;11.14;50.27;100031.81;5144538;27;8951;-76
2022/12/29 03:37:13;;;;;;;;;30.25;29.50;;;;;11.00;50.88;100029.16;5129502;27;9527;-78
2022/12/29 03:39:43;;;;;;;;;27.40;25.00;;;;;11.06;50.13;100034.38;5129318;27;8859;-77
2022/12/29 03:42:15;;;;;;;;;25.00;22.00;;;;;11.27;50.26;100032.75;5124580;27;8987;-77
2022/12/29 03:44:47;;;;;;;;;37.25;33.50;;;;;11.21;50.25;100036.22;5102264;28;9609;-77
2022/12/29 03:47:17;;;;;;;;;30.20;28.80;;;;;11.29;50.06;100029.28;5084197;28;9660;-76
2022/12/29 03:49:50;;;;;;;;;29.80;26.40;;;;;11.47;49.88;100035.44;5087900;28;8929;-77
2022/12/29 03:52:19;;;;;;;;;27.40;26.40;;;;;11.47;49.58;100030.19;5088352;28;8910;-74
2022/12/29 03:54:49;;;;;;;;;25.20;23.80;;;;;11.66;48.34;100036.34;5088077;28;8871;-76
2022/12/29 03:57:17;;;;;;;;;22.00;21.00;;;;;11.71;48.96;100037.25;5089616;28;8841;-75
2022/12/29 04:00:00;;;;;;;;;24.60;22.60;;;;;11.90;48.45;100028.59;5053674;28;8878;-76
2022/12/29 04:02:31;;;;;;;;;16.20;15.40;;;;;11.98;47.82;100031.22;5086574;28;8843;-76
2022/12/29 04:05:06;;;;;;;;;21.80;21.00;;;;;12.16;47.32;100026.91;5068872;28;8882;-75
2022/12/29 04:07:35;;;;;;;;;27.80;23.80;;;;;12.28;47.56;100019.06;5082954;28;8849;-75
2022/12/29 04:10:05;;;;;;;;;28.75;24.50;;;;;12.24;47.29;100030.41;5089108;28;8863;-76
2022/12/29 04:12:35;;;;;;;;;29.80;26.80;;;;;12.31;46.82;100024.31;5089220;28;8837;-75
2022/12/29 04:15:06;;;;;;;;;27.75;24.50;;;;;12.46;46.44;100032.16;5110849;27;8863;-74
2022/12/29 04:17:35;;;;;;;;;25.80;25.80;;;;;12.52;46.69;100033.03;5014760;27;8877;-76
2022/12/29 04:23:07;;;;;;;;;27.20;26.20;;;;;12.72;45.87;100038.22;5035742;28;8866;-75
2022/12/29 04:25:37;;;;;;;;;32.40;30.60;;;;;12.77;45.79;100033.84;5052123;28;8826;-75
2022/12/29 04:28:07;;;;;;;;;27.40;26.80;;;;;12.84;45.20;100041.69;5052257;28;8841;-77
2022/12/29 04:30:51;;;;;;;;;30.80;27.60;;;;;12.89;45.14;100039.06;5048282;28;9018;-76
2022/12/29 04:33:24;;;;;;;;;33.25;31.75;;;;;12.91;45.25;100039.06;5049571;28;8881;-74
2022/12/29 04:35:56;;;;;;;;;33.80;31.00;;;;;12.91;45.41;100044.28;5053603;28;10060;-76
2022/12/29 04:38:25;;;;;;;;;30.00;28.00;;;;;12.82;45.42;100046.06;5048714;28;8874;-74
2022/12/29 04:40:56;;;;;;;;;24.00;23.60;;;;;12.80;45.29;100042.59;5031546;28;8846;-76
2022/12/29 04:43:25;;;;;;;;;28.40;27.40;;;;;12.87;44.88;100049.56;5048094;28;8877;-76
2022/12/29 04:46:24;;;;;;;;;30.50;29.25;;;;;12.79;45.69;100043.44;5033194;28;9031;-75
2022/12/29 04:49:07;;;;;;;;;40.25;36.50;;;;;12.78;45.24;100053.91;5031555;28;8899;-76
2022/12/29 04:52:00;;;;;;;;;49.50;43.00;;;;;12.77;44.87;100053.03;5048107;28;8862;-76
2022/12/29 04:54:29;;;;;;;;;37.50;35.50;;;;;12.80;44.81;100049.56;5053618;28;8877;-75
2022/12/29 04:57:08;;;;;;;;;37.25;33.50;;;;;12.76;45.35;100045.19;5051396;28;8857;-76
2022/12/29 04:59:39;;;;;;;;;57.75;48.25;;;;;12.69;45.20;100054.81;5101199;27;8875;-74
2022/12/29 05:02:09;;;;;;;;;60.75;46.00;;;;;12.67;45.18;100056.56;5130831;27;8847;-77
2022/12/29 05:04:38;;;;;;;;;42.75;36.50;;;;;12.66;44.99;100053.06;5113662;27;8853;-75
2022/12/29 05:07:09;;;;;;;;;41.25;37.00;;;;;12.64;45.06;100052.19;5113120;27;8962;-80
2022/12/29 05:09:38;;;;;;;;;36.50;30.75;;;;;12.47;45.26;100053.94;5113008;27;10005;-77
2022/12/29 05:12:07;;;;;;;;;38.00;33.50;;;;;12.46;45.23;100058.31;5112977;27;8837;-77
2022/12/29 05:14:46;;;;;;;;;33.75;31.50;;;;;12.37;45.68;100062.66;5112942;27;8838;-75
2022/12/29 05:17:14;;;;;;;;;33.25;31.50;;;;;12.12;46.27;100056.53;5112846;27;8849;-76
2022/12/29 05:19:43;;;;;;;;;49.75;43.25;;;;;12.15;45.50;100061.75;5123508;27;8847;-76
2022/12/29 05:22:14;;;;;;;;;43.00;39.50;;;;;12.16;46.15;100063.53;5133198;27;8835;-77
2022/12/29 05:24:44;;;;;;;;;39.00;34.75;;;;;12.19;46.17;100063.50;5133119;27;8839;-73
2022/12/29 05:27:14;;;;;;;;;44.00;37.75;;;;;12.16;46.00;100064.38;5130160;27;8844;-74
2022/12/29 05:30:07;;;;;;;;;50.50;43.50;;;;;12.24;46.07;100062.63;5084694;28;8854;-76
2022/12/29 05:32:36;;;;;;;;;61.00;51.50;;;;;12.31;45.84;100065.28;5085649;28;9673;-77
2022/12/29 05:35:06;;;;;;;;;39.75;37.00;;;;;12.21;45.40;100062.66;5068887;28;8880;-74
2022/12/29 05:37:37;;;;;;;;;60.00;50.75;;;;;12.16;46.00;100073.97;4987541;28;8877;-74
2022/12/29 05:40:07;;;;;;;;;51.00;43.50;;;;;12.19;45.70;100077.47;5066076;28;8969;-76
2022/12/29 05:42:36;;;;;;;;;56.00;47.25;;;;;12.22;45.46;100077.47;5019591;28;8865;-77
2022/12/29 05:45:23;;;;;;;;;46.00;41.00;;;;;12.26;45.67;100076.59;5068458;28;8914;-73
2022/12/29 05:47:59;;;;;;;;;41.75;39.25;;;;;12.28;45.63;100072.22;5022134;28;8798;-77
2022/12/29 05:50:49;;;;;;;;;39.75;37.25;;;;;12.27;46.15;100077.47;5083436;28;9042;-74
2022/12/29 05:53:24;;;;;;;;;48.00;39.00;;;;;12.23;46.33;100074.00;5050994;28;10054;-75
2022/12/29 05:55:53;;;;;;;;;30.80;28.80;;;;;12.28;46.36;100084.44;5068458;28;8974;-77
2022/12/29 05:58:22;;;;;;;;;46.00;39.50;;;;;12.33;46.10;100081.84;5087970;28;8846;-76
2022/12/29 06:00:52;;;;;;;;;49.50;41.00;;;;;12.37;45.87;100079.22;5067738;28;8861;-78
2022/12/29 06:03:21;;;;;;;;;56.00;47.75;;;;;12.41;45.33;100091.41;5068181;28;8865;-77
2022/12/29 06:05:50;;;;;;;;;61.25;50.50;;;;;12.42;45.53;100087.06;5018792;28;8916;-76
2022/12/29 06:08:19;;;;;;;;;50.50;42.25;;;;;12.36;46.06;100093.19;5125024;27;8843;-78
2022/12/29 06:10:51;;;;;;;;;54.00;44.25;;;;;12.38;45.38;100083.59;5142032;27;8863;-74
2022/12/29 06:13:20;;;;;;;;;41.00;32.75;;;;;12.34;45.80;100086.19;5112093;27;8855;-77
2022/12/29 06:15:51;;;;;;;;;47.50;43.00;;;;;12.31;45.74;100087.06;5126663;27;9574;-75
2022/12/29 06:18:21;;;;;;;;;27.25;23.25;;;;;12.36;46.08;100092.28;5093415;27;8868;-76
2022/12/29 06:20:50;;;;;;;;;34.75;33.00;;;;;12.32;45.86;100086.19;5106350;28;8878;-76
2022/12/29 06:23:20;;;;;;;;;38.50;32.50;;;;;12.35;45.55;100095.78;5076435;27;8938;-78
2022/12/29 06:25:50;;;;;;;;;60.00;46.25;;;;;12.30;45.88;100090.53;5109189;27;8940;-76
2022/12/29 06:28:19;;;;;;;;;44.75;38.25;;;;;11.93;47.06;100100.03;5092287;28;9021;-76
2022/12/29 06:30:48;;;;;;;;;42.00;37.75;;;;;11.90;46.81;100100.91;5106658;27;9669;-74
2022/12/29 06:33:19;;;;;;;;;49.00;40.00;;;;;11.86;47.21;100097.38;5092963;27;8857;-78
2022/12/29 06:35:47;;;;;;;;;48.75;41.75;;;;;12.02;46.64;100103.59;5109524;27;8829;-76
2022/12/29 06:38:16;;;;;;;;;51.00;39.75;;;;;12.07;46.83;100101.81;5126835;27;8845;-76
2022/12/29 06:40:45;;;;;;;;;69.75;55.50;;;;;12.06;46.29;100099.19;5109446;27;8857;-75
2022/12/29 06:43:18;;;;;;;;;58.50;48.25;;;;;12.18;46.60;100103.63;5126749;27;8838;-74
2022/12/29 06:45:59;;;;;;;;;56.25;47.50;;;;;12.29;46.23;100101.88;5124756;27;8879;-75
2022/12/29 06:48:29;;;;;;;;;54.25;44.00;;;;;12.33;46.66;100106.25;5090657;28;9442;-74
2022/12/29 06:50:57;;;;;;;;;48.75;42.25;;;;;12.41;45.98;100114.09;5092995;27;8844;-75
2022/12/29 06:53:26;;;;;;;;;71.00;56.50;;;;;12.44;45.65;100111.50;5096331;27;8926;-75
2022/12/29 06:55:56;;;;;;;;;53.50;42.50;;;;;12.39;45.89;100111.47;5113393;27;8845;-74
2022/12/29 06:58:26;;;;;;;;;42.50;37.75;;;;;12.55;46.09;100114.09;5115605;27;8997;-81
2022/12/29 07:00:55;;;;;;;;;31.40;28.40;;;;;12.54;46.43;100105.38;5097842;27;8972;-76
2022/12/29 07:03:24;;;;;;;;;32.40;27.60;;;;;12.68;45.74;100113.22;5129517;27;8829;-78
2022/12/29 07:05:54;;;;;;;;;28.40;25.00;;;;;12.64;46.17;100107.13;5113139;27;8945;-79
2022/12/29 07:08:22;;;;;;;;;48.75;40.00;;;;;12.60;46.25;100105.38;5111287;27;8841;-78
2022/12/29 07:10:51;;;;;;;;;32.40;30.00;;;;;12.52;46.68;100116.75;5094014;27;8924;-78
2022/12/29 07:13:20;;;;;;;;;24.80;23.80;;;;;12.60;46.74;100109.75;5130202;27;8937;-77
2022/12/29 07:15:50;;;;;;;;;41.60;34.80;;;;;12.84;45.84;100107.13;5131564;27;8831;-80
2022/12/29 07:18:19;;;;;;;;;48.00;42.00;;;;;12.70;46.51;100108.88;5131261;27;8866;-76
2022/12/29 07:20:48;;;;;;;;;38.25;35.50;;;;;12.86;45.75;100102.75;5152044;27;8890;-78
2022/12/29 07:23:17;;;;;;;;;39.50;34.50;;;;;13.05;45.82;100107.97;5118924;27;8895;-78
2022/12/29 07:25:46;;;;;;;;;48.75;40.25;;;;;13.23;45.63;100105.34;5132677;27;8839;-80
2022/12/29 07:28:15;;;;;;;;;53.50;45.25;;;;;13.26;45.41;100110.53;5132503;27;8859;-80
2022/12/29 07:30:47;;;;;;;;;60.50;49.25;;;;;13.33;45.19;100111.44;5114980;27;8982;-79
2022/12/29 07:33:17;;;;;;;;;57.50;47.25;;;;;13.43;44.82;100118.41;5115722;27;8850;-80
2022/12/29 07:35:45;;;;;;;;;62.50;50.75;;;;;13.44;44.77;100106.19;5131965;27;8942;-77
2022/12/29 07:38:14;;;;;;;;;57.50;49.00;;;;;13.29;45.16;100116.66;5130481;27;8843;-78
2022/12/29 07:40:43;;;;;;;;;58.25;49.00;;;;;13.43;45.16;100117.53;5130647;27;8916;-81
2022/12/29 07:43:12;;;;;;;;;59.50;47.75;;;;;13.63;44.64;100117.47;5113811;27;8905;-79
2022/12/29 07:45:49;;;;;;;;;55.50;45.50;;;;;13.66;44.45;100112.19;5113856;27;9713;-76
2022/12/29 07:48:20;;;;;;;;;53.75;45.50;;;;;13.55;44.68;100120.09;5130532;27;8835;-78
2022/12/29 07:50:49;;;;;;;;;54.75;43.50;;;;;13.59;45.13;100118.34;5125591;27;8861;-78
2022/12/29 07:53:18;;;;;;;;;39.50;35.75;;;;;13.73;44.52;100116.53;5108448;27;8864;-76
2022/12/29 07:55:47;;;;;;;;;33.00;32.75;;;;;13.85;44.74;100118.22;5126143;27;8983;-76
2022/12/29 07:58:16;;;;;;;;;39.25;34.50;;;;;14.09;44.39;100119.00;5059965;27;8884;-77
2022/12/29 08:00:44;;;;;;;;;51.50;40.25;;;;;14.17;44.02;100109.31;5128380;27;8842;-79
2022/12/29 08:03:13;;;;;;;;;23.25;21.50;;;;;13.88;44.52;100109.50;5111663;27;8838;-78
2022/12/29 08:05:43;;;;;;;;;41.75;35.75;;;;;13.77;45.07;100105.16;5110783;27;8841;-77
2022/12/29 08:08:12;;;;;;;;;43.75;37.50;;;;;13.96;44.75;100102.47;5126366;27;8825;-76
2022/12/29 08:10:41;;;;;;;;;41.00;37.50;;;;;14.14;44.75;100107.59;5108741;27;8920;-79
2022/12/29 08:13:12;;;;;;;;;48.50;39.75;;;;;14.26;44.29;100103.16;5125928;27;8965;-79
2022/12/29 08:15:40;;;;;;;;;41.50;35.25;;;;;14.18;44.65;100103.22;5092191;27;8977;-77
2022/12/29 08:18:09;;;;;;;;;43.75;38.50;;;;;14.19;44.76;100105.81;5108664;27;8861;-77
2022/12/29 08:20:38;;;;;;;;;48.50;42.00;;;;;14.57;44.01;100107.34;5092128;27;8854;-76
2022/12/29 08:23:08;;;;;;;;;51.00;40.25;;;;;14.85;43.42;100106.22;5112058;27;8867;-78
2022/12/29 08:25:37;;;;;;;;;30.75;25.00;;;;;14.78;43.47;100103.66;5149770;27;8920;-77
2022/12/29 08:28:06;;;;;;;;;48.25;41.75;;;;;14.88;43.36;100108.84;5078665;27;8855;-76
2022/12/29 08:30:36;;;;;;;;;6.25;3.50;;;;;15.02;43.41;100101.69;5113217;27;9646;-77
2022/12/29 08:33:05;;;;;;;;;45.00;39.00;;;;;15.35;42.75;100102.25;5130761;27;8863;-77
2022/12/29 08:35:33;;;;;;;;;44.50;38.50;;;;;15.31;42.35;100109.28;5148935;27;8934;-76
2022/12/29 08:38:02;;;;;;;;;52.75;44.50;;;;;15.29;42.58;100108.44;5113423;27;8827;-79
2022/12/29 08:40:32;;;;;;;;;51.75;43.00;;;;;15.40;42.34;100113.53;5113038;27;8977;-79
2022/12/29 08:43:01;;;;;;;;;51.25;43.25;;;;;15.59;42.09;100101.06;5130199;27;8882;-77
2022/12/29 08:45:30;;;;;;;;;47.75;40.25;;;;;15.52;42.24;100107.28;5130359;27;8839;-77
2022/12/29 08:47:59;;;;;;;;;55.25;46.75;;;;;15.82;41.83;100103.44;5148936;27;8862;-75
2022/12/29 08:50:27;;;;;;;;;48.75;40.00;;;;;15.90;41.53;100101.59;5132502;27;9654;-77
2022/12/29 08:52:56;;;;;;;;;46.00;38.75;;;;;15.89;41.21;100110.34;5084667;28;9661;-79
2022/12/29 08:55:25;;;;;;;;;40.25;35.50;;;;;15.85;41.58;100115.69;5050871;28;8876;-76
2022/12/29 08:57:56;;;;;;;;;42.00;36.25;;;;;15.91;41.58;100112.97;5067915;28;9013;-79
2022/12/29 09:00:25;;;;;;;;;53.00;41.00;;;;;15.92;41.60;100109.47;5067882;28;8933;-79
2022/12/29 09:02:55;;;;;;;;;49.00;42.00;;;;;16.09;41.32;100101.34;5051137;28;8868;-77
2022/12/29 09:05:25;;;;;;;;;39.25;36.00;;;;;15.90;41.35;100098.09;5060939;28;8907;-81
2022/12/29 09:07:54;;;;;;;;;31.80;27.60;;;;;15.75;41.71;100097.41;5069012;28;9648;-78
2022/12/29 09:10:23;;;;;;;;;37.60;34.60;;;;;15.93;42.10;100101.53;5066450;28;8855;-76
2022/12/29 09:12:52;;;;;;;;;30.40;30.20;;;;;15.98;41.67;100093.59;5051039;28;8901;-77
2022/12/29 09:15:22;;;;;;;;;37.25;34.00;;;;;16.19;41.61;100087.16;5067597;28;8851;-77
2022/12/29 09:17:51;;;;;;;;;30.80;28.00;;;;;16.30;40.74;100087.84;5067632;28;8957;-78
2022/12/29 09:20:20;;;;;;;;;33.40;28.40;;;;;16.13;41.25;100087.25;5067539;28;8848;-77
2022/12/29 09:22:49;;;;;;;;;22.60;21.40;;;;;16.14;41.28;100081.06;5050876;28;8848;-77
2022/12/29 09:25:19;;;;;;;;;21.40;19.40;;;;;16.05;41.32;100083.84;5111427;27;8869;-78
2022/12/29 09:27:48;;;;;;;;;25.00;22.00;;;;;15.88;41.45;100082.31;5112877;27;8904;-78
2022/12/29 09:30:17;;;;;;;;;22.00;22.00;;;;;16.10;41.43;100074.13;5112894;27;8857;-76
2022/12/29 09:32:47;;;;;;;;;19.80;19.60;;;;;16.14;40.92;100071.44;5130027;27;8841;-78
2022/12/29 09:35:22;;;;;;;;;45.25;38.00;;;;;15.98;41.62;100072.53;5127700;27;9682;-79
2022/12/29 09:37:52;;;;;;;;;39.80;35.20;;;;;16.23;41.19;100065.16;5037940;28;8934;-76
2022/12/29 09:40:27;;;;;;;;;19.40;18.80;;;;;16.56;40.53;100057.63;5087720;28;9677;-78
2022/12/29 09:43:10;;;;;;;;;27.80;25.80;;;;;16.70;40.44;100060.00;5054128;28;8980;-79
2022/12/29 09:45:44;;;;;;;;;27.80;25.40;;;;;16.77;40.06;100053.75;5087882;28;8877;-77
2022/12/29 09:48:21;;;;;;;;;21.80;21.80;;;;;16.82;39.82;100049.28;5054231;28;8842;-77
2022/12/29 09:50:56;;;;;;;;;24.40;20.80;;;;;16.89;39.96;100043.00;5087711;28;8865;-79
2022/12/29 09:53:31;;;;;;;;;22.80;20.80;;;;;16.69;40.03;100032.81;5054429;28;8846;-82
2022/12/29 09:56:03;;;;;;;;;23.20;22.80;;;;;16.91;39.42;100035.94;5071205;28;8853;-79
2022/12/29 09:58:38;;;;;;;;;24.40;20.00;;;;;16.95;39.73;100032.34;5038712;28;9606;-77
2022/12/29 10:01:09;;;;;;;;;17.40;17.40;;;;;16.99;39.42;100027.03;5088027;28;8853;-80
2022/12/29 10:03:48;;;;;;;;;20.80;19.60;;;;;16.90;39.32;100025.41;5087298;28;8977;-78
2022/12/29 10:06:23;;;;;;;;;19.00;18.20;;;;;17.18;39.26;100019.63;5070386;28;8960;-80
2022/12/29 10:09:02;;;;;;;;;21.80;20.00;;;;;17.20;39.10;100015.19;5072882;27;8821;-78
2022/12/29 10:11:52;;;;;;;;;27.40;25.00;;;;;17.32;38.84;100012.31;5096524;27;8979;-79
2022/12/29 10:14:36;;;;;;;;;14.00;13.60;;;;;17.58;38.33;100011.78;5095969;27;8826;-79
2022/12/29 10:17:13;;;;;;;;;18.80;18.00;;;;;17.68;38.61;100012.44;5111743;27;8996;-80
2022/12/29 10:19:57;;;;;;;;;15.60;15.20;;;;;17.56;38.01;100010.94;5112197;27;8829;-76
2022/12/29 10:22:39;;;;;;;;;17.40;15.40;;;;;17.81;37.99;100013.88;5132128;27;8843;-77
2022/12/29 10:25:16;;;;;;;;;19.80;16.80;;;;;17.63;37.41;100016.94;5080598;27;8835;-73
2022/12/29 10:27:49;;;;;;;;;16.40;14.60;;;;;17.69;37.35;100012.41;5135400;27;8884;-78
2022/12/29 10:30:19;;;;;;;;;20.40;19.20;;;;;17.80;37.25;100008.66;5132024;27;8847;-78
2022/12/29 10:32:53;;;;;;;;;13.20;12.00;;;;;17.85;36.57;100007.66;5088602;28;8925;-77
2022/12/29 10:35:25;;;;;;;;;11.80;11.60;;;;;17.82;36.87;100004.19;5088758;28;8886;-78
2022/12/29 10:38:00;;;;;;;;;16.00;15.00;;;;;18.07;36.42;100007.16;5071927;28;8994;-77
2022/12/29 10:40:37;;;;;;;;;23.00;20.80;;;;;18.26;36.63;99991.72;5106594;28;8861;-77
2022/12/29 10:43:19;;;;;;;;;24.40;24.40;;;;;18.39;36.21;99990.56;5090783;28;8851;-79
2022/12/29 10:45:49;;;;;;;;;6.60;5.00;;;;;18.05;35.34;99990.50;5107190;28;9726;-78
2022/12/29 10:48:23;;;;;;;;;1.00;0.00;;;;;18.19;34.97;99982.25;5093048;28;8855;-79
2022/12/29 10:51:04;;;;;;;;;10.00;8.40;;;;;18.15;35.39;99988.50;5098014;28;8880;-77
2022/12/29 10:53:40;;;;;;;;;12.80;11.80;;;;;18.28;34.88;99976.75;5073583;28;9703;-77
2022/12/29 10:56:22;;;;;;;;;8.40;7.80;;;;;18.07;34.89;99981.66;5094842;28;8867;-78
2022/12/29 10:58:55;;;;;;;;;7.60;7.00;;;;;18.34;34.51;99975.72;5090844;28;8852;-78
2022/12/29 11:01:32;;;;;;;;;8.40;7.60;;;;;18.13;34.47;99985.91;5107093;28;8847;-79
2022/12/29 11:04:06;;;;;;;;;5.60;5.60;;;;;18.27;33.75;99972.38;5090028;28;8851;-78
2022/12/29 11:06:37;;;;;;;;;12.00;11.00;;;;;18.67;33.87;99971.31;5067059;28;8913;-78
2022/12/29 11:09:15;;;;;;;;;9.40;7.80;;;;;18.83;33.71;99975.31;5049244;28;8883;-78
2022/12/29 11:11:45;;;;;;;;;11.00;8.80;;;;;18.91;33.14;99968.97;5051875;28;8864;-78
2022/12/29 11:14:16;;;;;;;;;7.20;7.20;;;;;18.99;33.52;99966.97;5064308;28;8935;-78
2022/12/29 11:16:45;;;;;;;;;9.20;9.20;;;;;19.26;33.52;99966.16;5085913;28;8841;-77
2022/12/29 11:19:22;;;;;;;;;10.80;10.20;;;;;19.54;33.27;99959.16;5048972;28;8886;-76
2022/12/29 11:21:53;;;;;;;;;9.00;9.00;;;;;19.41;32.76;99966.59;5068328;28;8854;-77
2022/12/29 11:24:25;;;;;;;;;11.60;10.00;;;;;19.41;32.91;99962.19;5066949;28;8852;-78
2022/12/29 11:26:57;;;;;;;;;14.00;13.00;;;;;19.45;32.56;99958.53;5069358;28;10159;-77
2022/12/29 11:29:29;;;;;;;;;13.20;10.00;;;;;19.26;32.93;99962.63;5085842;28;8829;-77
2022/12/29 11:31:59;;;;;;;;;16.80;15.60;;;;;19.17;32.71;99954.97;5052978;28;8841;-79
2022/12/29 11:34:33;;;;;;;;;8.00;8.00;;;;;18.82;32.74;99960.34;5028855;28;8952;-77
2022/12/29 11:37:07;;;;;;;;;7.20;6.20;;;;;19.24;32.60;99953.88;5052995;28;8865;-78
2022/12/29 11:39:41;;;;;;;;;9.80;9.20;;;;;19.49;32.49;99961.97;5069166;28;8867;-78
2022/12/29 11:42:16;;;;;;;;;8.60;8.00;;;;;19.20;32.22;99958.41;5085841;28;8843;-78
2022/12/29 11:44:47;;;;;;;;;6.00;6.00;;;;;19.11;31.80;99956.03;5069032;28;8936;-79
2022/12/29 11:47:27;;;;;;;;;7.40;7.40;;;;;19.22;31.96;99948.63;5069198;28;8836;-78
2022/12/29 11:49:59;;;;;;;;;8.00;6.40;;;;;19.22;31.79;99950.41;5051804;28;8840;-80
2022/12/29 11:52:34;;;;;;;;;9.00;9.00;;;;;19.46;31.86;99944.38;5085380;28;8875;-80
2022/12/29 11:55:08;;;;;;;;;11.00;7.40;;;;;19.56;31.88;99947.63;5085977;28;8853;-81
2022/12/29 11:57:37;;;;;;;;;7.40;6.00;;;;;19.65;31.44;99949.97;5085500;28;8837;-80
2022/12/29 12:00:17;;;;;;;;;9.40;9.40;;;;;19.67;31.58;99945.50;5085681;28;9646;-81
2022/12/29 12:02:54;;;;;;;;;7.20;7.20;;;;;19.68;31.44;99938.44;5067399;28;8857;-81
2022/12/29 12:05:30;;;;;;;;;13.40;9.40;;;;;19.72;31.28;99949.81;5101770;27;8818;-77
2022/12/29 12:08:09;;;;;;;;;7.80;7.80;;;;;19.96;31.13;99935.81;5110308;27;8837;-81
2022/12/29 12:10:47;;;;;;;;;6.80;6.80;;;;;19.74;30.71;99940.94;5093712;27;8837;-79
2022/12/29 12:13:23;;;;;;;;;7.00;7.00;;;;;19.62;30.76;99930.69;5110036;27;8958;-78
2022/12/29 12:15:58;;;;;;;;;10.40;8.80;;;;;19.58;31.41;99932.56;5092174;27;8883;-80
2022/12/29 12:18:38;;;;;;;;;7.40;7.20;;;;;19.94;31.01;99931.47;5110324;27;9678;-81
2022/12/29 12:21:14;;;;;;;;;12.00;12.00;;;;;20.16;31.17;99924.53;5084627;28;8830;-80
2022/12/29 12:24:03;;;;;;;;;10.60;10.40;;;;;20.38;30.46;99918.53;5084666;28;8849;-80
2022/12/29 12:26:39;;;;;;;;;10.40;9.60;;;;;20.48;30.39;99914.63;5050950;28;9579;-81